createdAt,value
2022-10-17T00:01:10.714Z,17.07
2022-10-17T00:03:39.971Z,17.01
2022-10-17T00:06:13.539Z,16.93
2022-10-17T00:08:43.065Z,16.94
2022-10-17T00:11:19.599Z,16.88
2022-10-17T00:13:51.962Z,16.90
2022-10-17T00:16:25.298Z,16.87
2022-10-17T00:18:53.044Z,16.89
2022-10-17T00:21:22.829Z,16.98
2022-10-17T00:23:50.902Z,17.12
2022-10-17T00:26:19.175Z,17.11
2022-10-17T00:28:52.321Z,16.90
2022-10-17T00:31:22.937Z,16.84
2022-10-17T00:33:51.858Z,17.08
2022-10-17T00:36:25.398Z,17.35
2022-10-17T00:38:57.754Z,17.37
2022-10-17T00:41:29.885Z,17.41
2022-10-17T00:44:04.225Z,17.45
2022-10-17T00:46:37.377Z,17.55
2022-10-17T00:49:10.917Z,17.63
2022-10-17T00:51:44.219Z,17.63
2022-10-17T00:54:14.745Z,17.68
2022-10-17T00:56:43.912Z,17.89
2022-10-17T00:59:13.365Z,17.87
2022-10-17T01:01:43.445Z,17.74
2022-10-17T01:04:11.213Z,17.71
2022-10-17T01:06:40.404Z,17.58
2022-10-17T01:09:08.854Z,17.30
2022-10-17T01:11:50.822Z,17.33
2022-10-17T01:14:43.805Z,17.48
2022-10-17T01:17:26.940Z,17.43
2022-10-17T01:19:57.705Z,17.25
2022-10-17T01:22:39.077Z,17.24
2022-10-17T01:25:46.077Z,17.17
2022-10-17T01:28:16.856Z,17.22
2022-10-17T01:31:12.173Z,17.35
2022-10-17T01:33:56.013Z,17.58
2022-10-17T01:36:37.771Z,17.70
2022-10-17T01:39:15.976Z,17.74
2022-10-17T01:41:52.211Z,17.83
2022-10-17T01:44:46.011Z,17.86
2022-10-17T01:47:19.456Z,17.73
2022-10-17T01:49:51.498Z,17.76
2022-10-17T01:52:24.048Z,17.77
2022-10-17T01:55:23.829Z,17.76
2022-10-17T01:57:56.256Z,17.79
2022-10-17T02:00:27.557Z,17.79
2022-10-17T02:03:04.113Z,17.79
2022-10-17T02:05:37.589Z,17.76
2022-10-17T02:08:06.423Z,17.64
2022-10-17T02:10:59.365Z,17.62
2022-10-17T02:13:53.211Z,17.61
2022-10-17T02:16:59.927Z,17.34
2022-10-17T02:19:55.083Z,17.12
2022-10-17T02:22:35.436Z,17.09
2022-10-17T02:25:13.304Z,17.12
2022-10-17T02:28:08.017Z,16.95
2022-10-17T02:30:43.491Z,16.78
2022-10-17T02:33:21.114Z,16.71
2022-10-17T02:35:54.009Z,16.77
2022-10-17T02:38:24.801Z,16.84
2022-10-17T02:40:54.579Z,16.71
2022-10-17T02:43:23.810Z,16.61
2022-10-17T02:45:52.925Z,16.62
2022-10-17T02:48:31.429Z,16.61
2022-10-17T02:51:09.719Z,16.73
2022-10-17T02:53:53.400Z,16.88
2022-10-17T02:56:22.332Z,17.00
2022-10-17T02:59:00.007Z,17.04
2022-10-17T03:01:30.139Z,17.18
2022-10-17T03:04:06.350Z,17.37
2022-10-17T03:06:34.286Z,17.45
2022-10-17T03:09:02.270Z,17.47
2022-10-17T03:11:30.510Z,17.45
2022-10-17T03:13:58.281Z,17.41
2022-10-17T03:16:26.333Z,17.21
2022-10-17T03:18:54.263Z,16.96
2022-10-17T03:21:22.129Z,16.94
2022-10-17T03:23:50.010Z,16.83
2022-10-17T03:26:19.079Z,16.53
2022-10-17T03:28:48.559Z,16.52
2022-10-17T03:31:18.733Z,16.65
2022-10-17T03:33:47.151Z,16.76
2022-10-17T03:36:19.402Z,16.80
2022-10-17T03:38:48.628Z,16.56
2022-10-17T03:41:17.467Z,16.41
2022-10-17T03:43:45.551Z,16.42
2022-10-17T03:46:15.380Z,16.50
2022-10-17T03:48:44.168Z,16.57
2022-10-17T03:51:12.221Z,16.69
2022-10-17T03:53:48.876Z,16.77
2022-10-17T03:56:19.385Z,16.76
2022-10-17T03:58:52.903Z,16.63
2022-10-17T04:01:21.865Z,16.67
2022-10-17T04:03:52.231Z,16.74
2022-10-17T04:06:21.121Z,16.76
2022-10-17T04:08:49.851Z,16.58
2022-10-17T04:11:23.219Z,16.46
2022-10-17T04:13:56.440Z,16.56
2022-10-17T04:16:25.203Z,16.50
2022-10-17T04:19:01.782Z,16.24
2022-10-17T04:21:32.936Z,16.03
2022-10-17T04:24:05.241Z,15.79
2022-10-17T04:27:05.335Z,15.63
2022-10-17T04:29:34.892Z,15.57
2022-10-17T04:32:09.906Z,15.55
2022-10-17T04:34:49.734Z,15.38
2022-10-17T04:37:18.252Z,15.37
2022-10-17T04:39:46.805Z,15.33
2022-10-17T04:42:15.157Z,15.34
2022-10-17T04:44:43.612Z,15.38
2022-10-17T04:47:12.875Z,15.44
2022-10-17T04:52:15.082Z,15.55
2022-10-17T04:54:49.565Z,15.61
2022-10-17T04:57:20.149Z,15.65
2022-10-17T05:00:05.832Z,15.56
2022-10-17T05:02:54.628Z,15.31
2022-10-17T05:05:23.357Z,15.15
2022-10-17T05:07:52.663Z,15.06
2022-10-17T05:10:24.234Z,14.94
2022-10-17T05:12:53.359Z,14.78
2022-10-17T05:15:23.976Z,14.81
2022-10-17T05:17:57.000Z,14.84
2022-10-17T05:20:26.226Z,14.92
2022-10-17T05:22:54.607Z,14.98
2022-10-17T05:25:24.358Z,15.06
2022-10-17T05:27:52.171Z,15.04
2022-10-17T05:30:20.077Z,14.99
2022-10-17T05:32:52.812Z,14.99
2022-10-17T05:35:22.218Z,15.02
2022-10-17T05:37:50.864Z,15.14
2022-10-17T05:40:18.909Z,15.18
2022-10-17T05:42:48.485Z,15.13
2022-10-17T05:45:17.016Z,15.18
2022-10-17T05:47:45.050Z,15.28
2022-10-17T05:50:13.334Z,15.44
2022-10-17T05:53:00.852Z,15.53
2022-10-17T05:55:29.055Z,15.56
2022-10-17T05:58:00.234Z,15.57
2022-10-17T06:00:29.938Z,15.62
2022-10-17T06:02:58.397Z,15.67
2022-10-17T06:05:26.767Z,15.79
2022-10-17T06:07:58.176Z,15.87
2022-10-17T06:10:29.679Z,15.78
2022-10-17T06:12:57.634Z,15.73
2022-10-17T06:15:26.690Z,15.74
2022-10-17T06:18:04.481Z,15.84
2022-10-17T06:20:32.245Z,15.97
2022-10-17T06:23:00.305Z,16.10
2022-10-17T06:25:48.595Z,16.20
2022-10-17T06:28:16.441Z,16.29
2022-10-17T06:30:44.126Z,16.32
2022-10-17T06:33:12.803Z,16.46
2022-10-17T06:35:40.894Z,16.55
2022-10-17T06:38:08.738Z,16.61
2022-10-17T06:40:37.570Z,16.59
2022-10-17T06:43:05.303Z,16.56
2022-10-17T06:46:05.578Z,16.66
2022-10-17T06:48:42.989Z,16.87
2022-10-17T06:51:20.305Z,17.06
2022-10-17T06:53:51.293Z,17.24
2022-10-17T06:56:48.964Z,17.42
2022-10-17T06:59:16.879Z,17.57
2022-10-17T07:01:52.496Z,17.61
2022-10-17T07:04:20.411Z,17.72
2022-10-17T07:06:48.514Z,17.79
2022-10-17T07:09:19.733Z,17.87
2022-10-17T07:11:48.036Z,17.94
2022-10-17T07:14:19.095Z,18.00
2022-10-17T07:16:49.996Z,18.00
2022-10-17T07:19:23.646Z,18.07
2022-10-17T07:21:51.952Z,18.22
2022-10-17T07:24:20.298Z,18.55
2022-10-17T07:27:03.952Z,18.87
2022-10-17T07:29:32.055Z,19.15
2022-10-17T07:32:10.347Z,19.42
2022-10-17T07:34:38.120Z,19.64
2022-10-17T07:37:07.536Z,19.65
2022-10-17T07:39:35.758Z,20.00
2022-10-17T07:42:10.491Z,20.06
2022-10-17T07:44:38.289Z,20.00
2022-10-17T07:47:06.181Z,20.08
2022-10-17T07:49:42.482Z,20.21
2022-10-17T07:52:12.253Z,20.32
2022-10-17T07:54:40.978Z,20.49
2022-10-17T07:57:09.172Z,20.54
2022-10-17T07:59:38.290Z,20.74
2022-10-17T08:02:08.206Z,20.98
2022-10-17T08:04:36.606Z,21.27
2022-10-17T08:07:20.992Z,21.44
2022-10-17T08:09:52.324Z,21.61
2022-10-17T08:12:20.725Z,21.72
2022-10-17T08:14:48.715Z,21.86
2022-10-17T08:17:16.506Z,22.01
2022-10-17T08:19:44.320Z,22.03
2022-10-17T08:22:12.220Z,22.06
2022-10-17T08:24:39.947Z,22.13
2022-10-17T08:27:11.518Z,22.20
2022-10-17T08:29:40.585Z,22.27
2022-10-17T08:32:10.216Z,22.42
2022-10-17T08:34:38.437Z,22.63
2022-10-17T08:37:06.211Z,22.82
2022-10-17T08:39:34.219Z,22.83
2022-10-17T08:42:25.690Z,23.00
2022-10-17T08:44:59.602Z,23.21
2022-10-17T08:47:36.100Z,23.35
2022-10-17T08:50:07.142Z,23.54
2022-10-17T08:53:03.251Z,23.59
2022-10-17T08:55:39.995Z,23.71
2022-10-17T08:58:32.567Z,23.91
2022-10-17T09:01:25.669Z,24.13
2022-10-17T09:04:24.091Z,24.22
2022-10-17T09:07:13.849Z,24.30
2022-10-17T09:09:52.433Z,24.36
2022-10-17T09:12:22.855Z,24.39
2022-10-17T09:15:12.234Z,24.69
2022-10-17T09:17:49.780Z,24.80
2022-10-17T09:20:39.341Z,24.86
2022-10-17T09:23:21.039Z,25.07
2022-10-17T09:25:54.994Z,25.11
2022-10-17T09:28:30.688Z,25.21
2022-10-17T09:31:03.592Z,25.22
2022-10-17T09:33:53.742Z,25.47
2022-10-17T09:36:29.599Z,25.68
2022-10-17T09:39:01.240Z,25.78
2022-10-17T09:41:46.558Z,25.78
2022-10-17T09:44:35.910Z,26.06
2022-10-17T09:47:21.376Z,26.27
2022-10-17T09:49:50.361Z,26.32
2022-10-17T09:52:29.799Z,26.38
2022-10-17T09:55:05.472Z,26.50
2022-10-17T09:57:52.535Z,26.62
2022-10-17T10:00:28.387Z,26.93
2022-10-17T10:03:18.547Z,27.00
2022-10-17T10:06:00.103Z,26.82
2022-10-17T10:08:37.191Z,26.87
2022-10-17T10:11:13.463Z,27.09
2022-10-17T10:13:43.208Z,27.27
2022-10-17T10:16:31.321Z,27.71
2022-10-17T10:18:59.458Z,27.83
2022-10-17T10:21:28.481Z,27.94
2022-10-17T10:23:59.378Z,27.79
2022-10-17T10:26:39.251Z,27.84
2022-10-17T10:29:21.652Z,27.94
2022-10-17T10:31:51.013Z,27.97
2022-10-17T10:34:27.305Z,28.02
2022-10-17T10:37:02.850Z,28.07
2022-10-17T10:39:43.127Z,28.19
2022-10-17T10:42:32.037Z,28.19
2022-10-17T10:45:42.859Z,28.37
2022-10-17T10:48:27.679Z,28.43
2022-10-17T10:51:12.661Z,28.35
2022-10-17T10:53:49.746Z,28.37
2022-10-17T10:56:36.258Z,28.52
2022-10-17T10:59:26.558Z,28.78
2022-10-17T11:02:10.987Z,29.16
2022-10-17T11:04:48.505Z,29.16
2022-10-17T11:07:23.885Z,29.32
2022-10-17T11:10:08.292Z,29.32
2022-10-17T11:12:51.880Z,29.40
2022-10-17T11:15:47.950Z,29.53
2022-10-17T11:18:26.795Z,29.70
2022-10-17T11:21:16.661Z,29.69
2022-10-17T11:24:00.853Z,29.60
2022-10-17T11:26:39.123Z,29.56
2022-10-17T11:29:09.069Z,29.78
2022-10-17T11:31:41.737Z,29.97
2022-10-17T11:34:21.092Z,30.15
2022-10-17T11:36:55.154Z,30.34
2022-10-17T11:39:29.459Z,30.38
2022-10-17T11:41:58.917Z,30.48
2022-10-17T11:44:40.588Z,30.76
2022-10-17T11:47:35.565Z,30.74
2022-10-17T11:53:20.790Z,30.59
2022-10-17T11:55:52.884Z,30.75
2022-10-17T11:58:59.562Z,31.04
2022-10-17T12:01:40.447Z,31.02
2022-10-17T12:04:24.273Z,31.16
2022-10-17T12:07:19.243Z,30.99
2022-10-17T12:09:47.187Z,31.07
2022-10-17T12:12:33.530Z,30.69
2022-10-17T12:15:14.439Z,30.81
2022-10-17T12:17:45.513Z,30.77
2022-10-17T12:20:27.585Z,30.93
2022-10-17T12:22:59.033Z,31.12
2022-10-17T12:25:34.372Z,31.15
2022-10-17T12:28:14.184Z,31.14
2022-10-17T12:30:59.923Z,31.23
2022-10-17T12:33:51.884Z,31.47
2022-10-17T12:36:22.075Z,31.57
2022-10-17T12:39:16.239Z,31.27
2022-10-17T12:41:46.703Z,31.20
2022-10-17T12:44:21.553Z,31.26
2022-10-17T12:47:04.183Z,31.38
2022-10-17T12:49:39.895Z,31.38
2022-10-17T12:52:26.794Z,31.50
2022-10-17T12:55:14.039Z,31.65
2022-10-17T12:57:57.012Z,31.73
2022-10-17T13:00:37.465Z,31.75
2022-10-17T13:03:18.985Z,31.63
2022-10-17T13:05:53.670Z,31.73
2022-10-17T13:08:28.043Z,31.80
2022-10-17T13:10:57.884Z,31.84
2022-10-17T13:13:47.771Z,31.52
2022-10-17T13:16:37.302Z,31.45
2022-10-17T13:19:17.529Z,31.36
2022-10-17T13:21:59.748Z,31.26
2022-10-17T13:24:41.441Z,30.95
2022-10-17T13:27:30.557Z,30.81
2022-10-17T13:30:18.202Z,30.73
2022-10-17T13:32:46.938Z,30.81
2022-10-17T13:35:31.711Z,30.83
2022-10-17T13:38:13.844Z,30.83
2022-10-17T13:40:50.052Z,31.07
2022-10-17T13:43:24.633Z,31.18
2022-10-17T13:46:02.254Z,31.17
2022-10-17T13:48:38.944Z,30.80
2022-10-17T13:51:10.491Z,30.79
2022-10-17T13:53:44.067Z,30.69
2022-10-17T13:56:29.829Z,31.05
2022-10-17T13:59:20.393Z,31.09
2022-10-17T14:01:50.305Z,30.78
2022-10-17T14:05:15.637Z,30.80
2022-10-17T14:08:10.007Z,30.71
2022-10-17T14:10:39.173Z,30.68
2022-10-17T14:13:21.591Z,30.53
2022-10-17T14:15:51.283Z,30.53
2022-10-17T14:18:26.653Z,30.53
2022-10-17T14:21:33.964Z,30.66
2022-10-17T14:23:44.369Z,30.36
2022-10-17T14:26:17.428Z,30.39
2022-10-17T14:28:48.636Z,30.24
2022-10-17T14:31:22.266Z,30.04
2022-10-17T14:33:52.282Z,29.91
2022-10-17T14:36:30.651Z,29.92
2022-10-17T14:38:59.331Z,30.00
2022-10-17T14:41:47.686Z,29.82
2022-10-17T14:44:36.407Z,29.69
2022-10-17T14:47:38.105Z,29.67
2022-10-17T14:50:12.856Z,29.40
2022-10-17T14:52:41.176Z,29.22
2022-10-17T14:55:23.398Z,29.12
2022-10-17T14:57:51.690Z,29.02
2022-10-17T15:00:22.584Z,28.97
2022-10-17T15:02:52.364Z,28.97
2022-10-17T15:05:23.320Z,28.82
2022-10-17T15:07:51.839Z,28.64
2022-10-17T15:10:35.232Z,28.57
2022-10-17T15:15:52.863Z,28.20
2022-10-17T15:18:21.594Z,27.95
2022-10-17T15:20:55.460Z,27.82
2022-10-17T15:23:33.448Z,27.79
2022-10-17T15:26:01.926Z,27.65
2022-10-17T15:28:30.979Z,27.43
2022-10-17T15:30:59.260Z,27.28
2022-10-17T15:33:27.616Z,27.17
2022-10-17T15:35:55.730Z,27.03
2022-10-17T15:38:23.894Z,26.89
2022-10-17T15:40:52.376Z,26.84
2022-10-17T15:43:25.257Z,26.70
2022-10-17T15:45:54.002Z,26.47
2022-10-17T15:48:29.140Z,26.11
2022-10-17T15:50:58.434Z,25.86
2022-10-17T15:53:27.012Z,25.68
2022-10-17T15:55:56.116Z,25.48
2022-10-17T15:58:28.839Z,25.09
2022-10-17T16:00:57.873Z,24.87
2022-10-17T16:03:28.517Z,24.57
2022-10-17T16:05:57.565Z,24.23
2022-10-17T16:08:28.479Z,24.14
2022-10-17T16:10:58.280Z,23.86
2022-10-17T16:13:28.403Z,23.66
2022-10-17T16:15:57.537Z,23.50
2022-10-17T16:18:25.624Z,23.38
2022-10-17T16:20:53.694Z,23.27
2022-10-17T16:23:21.966Z,23.10
2022-10-17T16:25:50.417Z,23.10
2022-10-17T16:28:18.644Z,23.02
2022-10-17T16:30:48.641Z,22.95
2022-10-17T16:33:17.474Z,22.80
2022-10-17T16:35:47.849Z,22.53
2022-10-17T16:38:19.498Z,22.22
2022-10-17T16:40:49.395Z,22.14
2022-10-17T16:43:17.693Z,21.97
2022-10-17T16:45:45.982Z,21.77
2022-10-17T16:48:14.065Z,21.74
2022-10-17T16:50:42.700Z,21.60
2022-10-17T16:53:11.320Z,21.54
2022-10-17T16:55:40.183Z,21.34
2022-10-17T16:58:08.851Z,21.31
2022-10-17T17:00:40.129Z,21.19
2022-10-17T17:03:10.232Z,20.98
2022-10-17T17:05:38.996Z,20.98
2022-10-17T17:08:10.360Z,20.70
2022-10-17T17:10:45.944Z,20.71
2022-10-17T17:13:14.448Z,20.66
2022-10-17T17:18:16.768Z,20.69
2022-10-17T17:20:46.411Z,20.78
2022-10-17T17:23:19.386Z,20.70
2022-10-17T17:25:50.810Z,20.71
2022-10-17T17:28:19.331Z,20.72
2022-10-17T17:30:47.689Z,20.66
2022-10-17T17:33:16.440Z,20.66
2022-10-17T17:35:47.928Z,20.62
2022-10-17T17:38:17.869Z,20.63
2022-10-17T17:40:50.865Z,20.52
2022-10-17T17:43:20.203Z,20.30
2022-10-17T17:45:49.365Z,20.20
2022-10-17T17:48:18.761Z,20.16
2022-10-17T17:50:48.966Z,20.16
2022-10-17T17:53:20.169Z,19.98
2022-10-17T17:56:01.168Z,19.87
2022-10-17T17:58:32.063Z,19.84
2022-10-17T18:01:02.221Z,19.83
2022-10-17T18:03:32.627Z,19.82
2022-10-17T18:06:01.444Z,19.90
2022-10-17T18:08:31.388Z,19.84
2022-10-17T18:11:09.668Z,19.77
2022-10-17T18:13:43.707Z,19.70
2022-10-17T18:16:14.710Z,19.66
2022-10-17T18:18:46.121Z,19.55
2022-10-17T18:21:15.097Z,19.50
2022-10-17T18:23:49.164Z,19.37
2022-10-17T18:26:18.781Z,19.29
2022-10-17T18:28:48.121Z,19.24
2022-10-17T18:31:24.622Z,19.17
2022-10-17T18:33:58.321Z,19.12
2022-10-17T18:36:28.482Z,19.06
2022-10-17T18:38:57.373Z,19.00
2022-10-17T18:41:27.619Z,18.94
2022-10-17T18:43:56.902Z,18.98
2022-10-17T18:46:30.800Z,19.05
2022-10-17T18:49:00.127Z,18.94
2022-10-17T18:51:44.671Z,18.83
2022-10-17T18:54:20.941Z,18.81
2022-10-17T18:56:51.237Z,18.79
2022-10-17T18:59:20.742Z,18.74
2022-10-17T19:01:50.561Z,18.66
2022-10-17T19:04:19.365Z,18.56
2022-10-17T19:06:47.604Z,18.56
2022-10-17T19:09:16.897Z,18.62
2022-10-17T19:11:50.672Z,18.63
2022-10-17T19:14:22.254Z,18.69
2022-10-17T19:16:52.604Z,18.75
2022-10-17T19:19:25.759Z,18.70
2022-10-17T19:21:56.373Z,18.74
2022-10-17T19:24:27.807Z,18.73
2022-10-17T19:26:59.162Z,18.67
2022-10-17T19:29:36.409Z,18.48
2022-10-17T19:32:17.915Z,18.29
2022-10-17T19:34:49.992Z,18.34
2022-10-17T19:37:17.950Z,18.55
2022-10-17T19:39:49.426Z,18.58
2022-10-17T19:42:19.443Z,18.58
2022-10-17T19:44:47.974Z,18.61
2022-10-17T19:47:17.033Z,18.57
2022-10-17T19:49:49.840Z,18.54
2022-10-17T19:52:18.856Z,18.59
2022-10-17T19:54:47.436Z,18.71
2022-10-17T19:57:16.549Z,18.77
2022-10-17T19:59:48.011Z,18.78
2022-10-17T20:02:19.599Z,18.77
2022-10-17T20:04:54.680Z,18.75
2022-10-17T20:07:34.748Z,18.62
2022-10-17T20:10:03.041Z,18.53
2022-10-17T20:12:31.509Z,18.42
2022-10-17T20:15:00.318Z,18.40
2022-10-17T20:17:29.176Z,18.40
2022-10-17T20:19:57.332Z,18.43
2022-10-17T20:22:25.488Z,18.44
2022-10-17T20:24:53.276Z,18.45
2022-10-17T20:27:25.451Z,18.47
2022-10-17T20:29:55.836Z,18.38
2022-10-17T20:32:26.298Z,18.29
2022-10-17T20:34:54.871Z,18.18
2022-10-17T20:37:25.658Z,18.20
2022-10-17T20:40:16.488Z,18.18
2022-10-17T20:42:41.561Z,18.02
2022-10-17T20:45:09.931Z,17.93
2022-10-17T20:47:47.036Z,17.88
2022-10-17T20:50:16.264Z,17.93
2022-10-17T20:52:44.031Z,17.89
2022-10-17T20:55:12.005Z,17.92
2022-10-17T20:57:40.860Z,17.98
2022-10-17T21:00:09.325Z,17.99
2022-10-17T21:02:37.479Z,17.94
2022-10-17T21:05:08.439Z,17.89
2022-10-17T21:07:37.687Z,17.86
2022-10-17T21:10:34.256Z,17.85
2022-10-17T21:12:59.788Z,17.60
2022-10-17T21:15:28.112Z,17.61
2022-10-17T21:17:55.959Z,17.68
2022-10-17T21:20:24.150Z,17.69
2022-10-17T21:22:52.591Z,17.61
2022-10-17T21:25:20.728Z,17.58
2022-10-17T21:27:54.943Z,17.59
2022-10-17T21:30:25.574Z,17.64
2022-10-17T21:32:57.082Z,17.50
2022-10-17T21:35:25.135Z,17.49
2022-10-17T21:37:52.999Z,17.62
2022-10-17T21:40:20.925Z,17.64
2022-10-17T21:42:48.998Z,17.63
2022-10-17T21:45:25.247Z,17.62
2022-10-17T21:50:42.358Z,17.36
2022-10-17T21:53:10.286Z,17.30
2022-10-17T21:55:38.241Z,17.31
2022-10-17T21:58:05.988Z,17.23
2022-10-17T22:00:34.102Z,17.17
2022-10-17T22:03:01.940Z,17.11
2022-10-17T22:05:31.289Z,17.00
2022-10-17T22:07:59.107Z,16.97
2022-10-17T22:10:27.035Z,17.04
2022-10-17T22:12:54.832Z,17.05
2022-10-17T22:15:22.661Z,16.98
2022-10-17T22:17:50.458Z,16.94
2022-10-17T22:20:18.274Z,16.82
2022-10-17T22:22:48.723Z,16.84
2022-10-17T22:25:16.715Z,16.83
2022-10-17T22:27:45.157Z,16.80
2022-10-17T22:30:13.052Z,16.68
2022-10-17T22:32:40.925Z,16.64
2022-10-17T22:35:09.136Z,16.63
2022-10-17T22:37:36.895Z,16.66
2022-10-17T22:40:06.034Z,16.61
2022-10-17T22:42:34.750Z,16.54
2022-10-17T22:45:03.155Z,16.53
2022-10-17T22:47:31.553Z,16.54
2022-10-17T22:49:59.624Z,16.54
2022-10-17T22:52:27.540Z,16.58
2022-10-17T22:54:55.679Z,16.67
2022-10-17T22:57:23.542Z,16.67
2022-10-17T22:59:52.105Z,16.70
2022-10-17T23:02:22.427Z,16.65
2022-10-17T23:04:50.906Z,16.66
2022-10-17T23:07:18.739Z,16.62
2022-10-17T23:09:46.490Z,16.61
2022-10-17T23:12:14.328Z,16.62
2022-10-17T23:14:43.579Z,16.54
2022-10-17T23:17:12.221Z,16.50
2022-10-17T23:19:40.380Z,16.47
2022-10-17T23:22:09.405Z,16.51
2022-10-17T23:24:37.345Z,16.56
2022-10-17T23:27:05.253Z,16.57
2022-10-17T23:29:34.358Z,16.59
2022-10-17T23:32:02.278Z,16.40
2022-10-17T23:34:30.719Z,16.25
2022-10-17T23:36:58.593Z,16.24
2022-10-17T23:39:26.492Z,16.20
2022-10-17T23:41:54.246Z,16.14
2022-10-17T23:44:23.573Z,16.19
2022-10-17T23:46:52.149Z,15.98
2022-10-17T23:49:20.269Z,15.90
2022-10-17T23:51:49.959Z,15.89
2022-10-17T23:54:17.850Z,15.98
2022-10-17T23:56:45.784Z,15.98
2022-10-17T23:59:13.509Z,15.93
